X  ZavřítMETAR data      LKPD Pardubice Airport

Teplota

5°C Teplota

5°C Rosný bod

100% Vlhkost



Vítr

 8 KM/H

 5 MPH

 2 M/S

 4 KTS



310°
SZ směr
Současné podmínky

Déšť Déšť
Tlak vzduchu 1013.92 (hPa) - 29.94 (in)
Dohlednost 1.9 (mi) - 3 (km)
Letiště
Kód letiště LKPD

Lokace Pardubice Airport 80 (km)

Metar:
LKPD 042100Z 31004KT 3000 RA SCT019 OVC040 05/05 Q1014 RMK YLO

Čas: 04-03-2021 22:00